createdAt,value
2022-12-17T00:01:18.531Z,-1.20
2022-12-17T00:04:04.379Z,-1.22
2022-12-17T00:06:50.119Z,-1.25
2022-12-17T00:09:35.068Z,-1.38
2022-12-17T00:12:20.198Z,-1.33
2022-12-17T00:15:05.101Z,-1.28
2022-12-17T00:17:50.135Z,-1.17
2022-12-17T00:20:34.852Z,-1.12
2022-12-17T00:23:22.147Z,-1.11
2022-12-17T00:26:11.238Z,-1.16
2022-12-17T00:28:56.966Z,-1.17
2022-12-17T00:31:42.820Z,-1.25
2022-12-17T00:34:27.672Z,-1.23
2022-12-17T00:37:12.538Z,-1.26
2022-12-17T00:39:59.383Z,-1.34
2022-12-17T00:42:44.498Z,-1.37
2022-12-17T00:45:29.448Z,-1.35
2022-12-17T00:48:14.178Z,-1.40
2022-12-17T00:50:59.181Z,-1.30
2022-12-17T00:53:44.015Z,-1.30
2022-12-17T00:56:29.334Z,-1.33
2022-12-17T00:59:14.278Z,-1.36
2022-12-17T01:01:59.278Z,-1.37
2022-12-17T01:04:44.443Z,-1.27
2022-12-17T01:07:29.724Z,-1.43
2022-12-17T01:10:14.524Z,-1.38
2022-12-17T01:12:59.671Z,-1.29
2022-12-17T01:15:44.724Z,-1.21
2022-12-17T01:18:37.218Z,-1.19
2022-12-17T01:21:26.977Z,-1.17
2022-12-17T01:24:11.799Z,-1.17
2022-12-17T01:26:56.697Z,-1.30
2022-12-17T01:29:41.474Z,-1.31
2022-12-17T01:32:26.242Z,-1.32
2022-12-17T01:35:11.098Z,-1.37
2022-12-17T01:37:56.183Z,-1.40
2022-12-17T01:40:40.989Z,-1.40
2022-12-17T01:43:30.554Z,-1.45
2022-12-17T01:46:16.778Z,-1.48
2022-12-17T01:49:04.600Z,-1.42
2022-12-17T01:52:00.989Z,-1.40
2022-12-17T01:54:46.151Z,-1.45
2022-12-17T01:57:31.553Z,-1.41
2022-12-17T02:00:25.426Z,-1.42
2022-12-17T02:03:10.626Z,-1.41
2022-12-17T02:06:03.647Z,-1.47
2022-12-17T02:09:10.361Z,-1.48
2022-12-17T02:12:17.592Z,-1.53
2022-12-17T02:15:40.601Z,-1.47
2022-12-17T02:18:31.984Z,-1.48
2022-12-17T02:21:18.292Z,-1.44
2022-12-17T02:24:06.078Z,-1.51
2022-12-17T02:27:09.971Z,-1.69
2022-12-17T02:30:02.505Z,-1.75
2022-12-17T02:32:49.133Z,-1.76
2022-12-17T02:35:36.736Z,-1.84
2022-12-17T02:38:35.387Z,-1.87
2022-12-17T02:41:22.891Z,-1.77
2022-12-17T02:44:08.581Z,-1.73
2022-12-17T02:46:53.824Z,-1.81
2022-12-17T02:49:38.737Z,-1.90
2022-12-17T02:52:24.260Z,-1.88
2022-12-17T02:55:09.087Z,-1.75
2022-12-17T02:57:55.827Z,-1.69
2022-12-17T03:00:40.546Z,-1.73
2022-12-17T03:03:25.839Z,-1.81
2022-12-17T03:06:10.638Z,-1.77
2022-12-17T03:08:55.478Z,-1.77
2022-12-17T03:11:40.452Z,-1.80
2022-12-17T03:14:25.058Z,-1.94
2022-12-17T03:17:10.237Z,-1.90
2022-12-17T03:19:58.167Z,-1.92
2022-12-17T03:22:43.286Z,-1.98
2022-12-17T03:25:28.130Z,-1.99
2022-12-17T03:28:12.987Z,-2.06
2022-12-17T03:30:57.951Z,-2.05
2022-12-17T03:33:43.037Z,-2.05
2022-12-17T03:36:27.939Z,-2.03
2022-12-17T03:39:13.006Z,-2.03
2022-12-17T03:41:57.859Z,-2.01
2022-12-17T03:44:42.797Z,-2.10
2022-12-17T03:47:27.602Z,-2.11
2022-12-17T03:50:12.364Z,-2.22
2022-12-17T03:52:57.279Z,-2.20
2022-12-17T03:55:42.394Z,-2.20
2022-12-17T03:58:27.074Z,-2.25
2022-12-17T04:01:12.088Z,-2.29
2022-12-17T04:03:57.369Z,-2.36
2022-12-17T04:06:42.305Z,-2.34
2022-12-17T04:09:27.042Z,-2.41
2022-12-17T04:12:11.748Z,-2.41
2022-12-17T04:14:57.203Z,-2.45
2022-12-17T04:17:42.006Z,-2.46
2022-12-17T04:20:26.977Z,-2.54
2022-12-17T04:23:12.014Z,-2.54
2022-12-17T04:25:57.087Z,-2.62
2022-12-17T04:28:42.267Z,-2.58
2022-12-17T04:31:27.324Z,-2.61
2022-12-17T04:34:12.418Z,-2.66
2022-12-17T04:36:58.195Z,-2.69
2022-12-17T04:39:43.264Z,-2.70
2022-12-17T04:42:28.573Z,-2.80
2022-12-17T04:45:13.531Z,-2.73
2022-12-17T04:47:58.748Z,-2.81
2022-12-17T04:50:43.672Z,-2.89
2022-12-17T04:53:28.959Z,-2.88
2022-12-17T04:56:14.708Z,-2.77
2022-12-17T04:59:00.126Z,-2.88
2022-12-17T05:01:45.159Z,-2.94
2022-12-17T05:04:29.999Z,-2.99
2022-12-17T05:07:14.875Z,-2.95
2022-12-17T05:09:59.715Z,-3.06
2022-12-17T05:12:44.830Z,-3.07
2022-12-17T05:15:29.840Z,-3.10
2022-12-17T05:18:23.543Z,-3.22
2022-12-17T05:21:08.397Z,-3.23
2022-12-17T05:23:53.504Z,-3.32
2022-12-17T05:26:43.751Z,-3.30
2022-12-17T05:29:30.388Z,-3.21
2022-12-17T05:32:15.746Z,-3.30
2022-12-17T05:35:00.513Z,-3.34
2022-12-17T05:37:45.223Z,-3.50
2022-12-17T05:40:30.786Z,-3.71
2022-12-17T05:43:22.498Z,-3.82
2022-12-17T05:46:08.234Z,-3.80
2022-12-17T05:48:53.753Z,-3.65
2022-12-17T05:51:39.692Z,-3.81
2022-12-17T05:54:25.115Z,-3.80
2022-12-17T05:57:10.426Z,-3.74
2022-12-17T05:59:55.649Z,-3.64
2022-12-17T06:02:40.792Z,-3.68
2022-12-17T06:05:26.373Z,-3.64
2022-12-17T06:08:11.293Z,-3.62
2022-12-17T06:10:56.319Z,-3.71
2022-12-17T06:13:41.055Z,-3.78
2022-12-17T06:16:25.994Z,-3.90
2022-12-17T06:19:11.294Z,-4.00
2022-12-17T06:21:55.975Z,-4.03
2022-12-17T06:24:45.755Z,-4.04
2022-12-17T06:27:31.630Z,-4.07
2022-12-17T06:30:18.915Z,-4.10
2022-12-17T06:33:04.682Z,-4.01
2022-12-17T06:35:49.545Z,-4.01
2022-12-17T06:38:34.340Z,-4.07
2022-12-17T06:41:20.372Z,-4.10
2022-12-17T06:44:05.091Z,-4.19
2022-12-17T06:46:50.252Z,-4.43
2022-12-17T06:49:35.086Z,-4.72
2022-12-17T06:52:20.298Z,-4.75
2022-12-17T06:55:05.593Z,-4.88
2022-12-17T06:57:50.804Z,-4.77
2022-12-17T07:00:36.303Z,-4.79
2022-12-17T07:03:24.299Z,-4.83
2022-12-17T07:06:09.058Z,-4.87
2022-12-17T07:08:54.025Z,-4.85
2022-12-17T07:11:39.265Z,-4.76
2022-12-17T07:14:24.464Z,-4.88
2022-12-17T07:17:09.533Z,-5.03
2022-12-17T07:19:54.447Z,-4.94
2022-12-17T07:22:39.297Z,-5.06
2022-12-17T07:25:24.651Z,-5.04
2022-12-17T07:28:16.161Z,-4.95
2022-12-17T07:31:01.092Z,-4.80
2022-12-17T07:33:45.971Z,-4.64
2022-12-17T07:36:30.809Z,-4.60
2022-12-17T07:39:15.579Z,-4.50
2022-12-17T07:42:00.472Z,-4.67
2022-12-17T07:44:45.232Z,-4.62
2022-12-17T07:47:30.026Z,-4.70
2022-12-17T07:50:14.807Z,-4.55
2022-12-17T07:52:59.658Z,-4.50
2022-12-17T07:55:44.738Z,-4.48
2022-12-17T07:58:30.225Z,-4.43
2022-12-17T08:01:19.250Z,-4.41
2022-12-17T08:04:04.292Z,-4.32
2022-12-17T08:06:48.987Z,-4.29
2022-12-17T08:09:33.897Z,-4.41
2022-12-17T08:12:18.673Z,-4.62
2022-12-17T08:15:03.385Z,-5.40
2022-12-17T08:17:48.075Z,-6.39
2022-12-17T08:20:33.147Z,-6.82
2022-12-17T08:23:22.144Z,-6.73
2022-12-17T08:26:07.141Z,-6.66
2022-12-17T08:28:52.163Z,-6.40
2022-12-17T08:31:38.575Z,-6.36
2022-12-17T08:34:23.503Z,-6.42
2022-12-17T08:37:08.468Z,-6.36
2022-12-17T08:39:53.126Z,-6.06
2022-12-17T08:42:37.962Z,-5.60
2022-12-17T08:45:23.452Z,-5.18
2022-12-17T08:48:08.390Z,-4.87
2022-12-17T08:50:53.256Z,-4.63
2022-12-17T08:53:38.330Z,-4.57
2022-12-17T08:56:23.954Z,-4.52
2022-12-17T08:59:08.642Z,-4.49
2022-12-17T09:01:53.452Z,-4.51
2022-12-17T09:04:38.229Z,-4.38
2022-12-17T09:07:23.075Z,-4.22
2022-12-17T09:10:07.814Z,-4.21
2022-12-17T09:12:52.575Z,-4.22
2022-12-17T09:15:37.575Z,-4.18
2022-12-17T09:18:22.991Z,-4.14
2022-12-17T09:21:14.728Z,-4.15
2022-12-17T09:24:00.037Z,-4.09
2022-12-17T09:26:45.000Z,-4.11
2022-12-17T09:29:29.823Z,-4.05
2022-12-17T09:32:14.654Z,-4.14
2022-12-17T09:34:59.474Z,-4.15
2022-12-17T09:37:44.683Z,-4.14
2022-12-17T09:40:37.029Z,-4.05
2022-12-17T09:43:33.542Z,-4.03
2022-12-17T09:46:32.042Z,-3.94
2022-12-17T09:49:27.473Z,-3.97
2022-12-17T09:52:12.902Z,-3.99
2022-12-17T09:55:08.535Z,-4.00
2022-12-17T09:57:55.516Z,-3.95
2022-12-17T10:00:44.026Z,-3.99
2022-12-17T10:03:32.680Z,-3.92
2022-12-17T10:06:24.971Z,-4.14
2022-12-17T10:09:14.768Z,-4.14
2022-12-17T10:12:00.151Z,-4.00
2022-12-17T10:14:45.302Z,-3.92
2022-12-17T10:17:39.695Z,-3.99
2022-12-17T10:20:39.543Z,-4.07
2022-12-17T10:23:24.922Z,-3.98
2022-12-17T10:26:14.578Z,-4.05
2022-12-17T10:29:00.056Z,-4.04
2022-12-17T10:31:48.576Z,-4.09
2022-12-17T10:34:37.101Z,-4.08
2022-12-17T10:37:23.586Z,-4.04
2022-12-17T10:40:14.990Z,-4.10
2022-12-17T10:42:59.859Z,-4.02
2022-12-17T10:45:50.965Z,-3.89
2022-12-17T10:48:41.012Z,-3.67
2022-12-17T10:51:55.327Z,-3.61
2022-12-17T10:54:49.652Z,-3.61
2022-12-17T10:57:49.099Z,-3.67
2022-12-17T11:00:37.025Z,-3.82
2022-12-17T11:03:22.872Z,-3.72
2022-12-17T11:06:12.925Z,-3.70
2022-12-17T11:08:59.532Z,-3.61
2022-12-17T11:11:44.741Z,-3.55
2022-12-17T11:14:32.233Z,-3.56
2022-12-17T11:17:23.367Z,-3.56
2022-12-17T11:20:26.734Z,-3.41
2022-12-17T11:23:14.478Z,-3.36
2022-12-17T11:26:08.756Z,-3.32
2022-12-17T11:28:54.410Z,-3.18
2022-12-17T11:32:01.024Z,-3.14
2022-12-17T11:35:23.682Z,-3.28
2022-12-17T11:38:22.816Z,-3.25
2022-12-17T11:41:20.283Z,-3.28
2022-12-17T11:44:31.459Z,-3.22
2022-12-17T11:47:41.703Z,-3.03
2022-12-17T11:50:44.965Z,-2.86
2022-12-17T11:53:38.742Z,-3.06
2022-12-17T11:56:38.728Z,-2.93
2022-12-17T11:59:56.122Z,-2.90
2022-12-17T12:03:12.223Z,-2.75
2022-12-17T12:06:08.424Z,-2.61
2022-12-17T12:09:00.533Z,-2.53
2022-12-17T12:12:00.202Z,-2.55
2022-12-17T12:15:01.791Z,-2.64
2022-12-17T12:18:06.553Z,-2.49
2022-12-17T12:21:18.278Z,-2.45
2022-12-17T12:24:21.968Z,-2.34
2022-12-17T12:27:26.485Z,-2.34
2022-12-17T12:30:21.342Z,-2.18
2022-12-17T12:33:30.126Z,-2.09
2022-12-17T12:36:19.627Z,-2.02
2022-12-17T12:39:12.744Z,-1.92
2022-12-17T12:42:40.140Z,-1.74
2022-12-17T12:45:49.682Z,-1.59
2022-12-17T12:48:57.370Z,-1.49
2022-12-17T12:51:46.852Z,-1.51
2022-12-17T12:54:47.646Z,-1.64
2022-12-17T12:57:52.935Z,-1.69
2022-12-17T13:00:46.177Z,-1.53
2022-12-17T13:03:53.225Z,-1.30
2022-12-17T13:06:38.230Z,-1.13
2022-12-17T13:09:33.882Z,-1.11
2022-12-17T13:12:00.657Z,-1.06
2022-12-17T13:14:31.315Z,-0.94
2022-12-17T13:17:04.493Z,-0.96
2022-12-17T13:19:31.237Z,-1.02
2022-12-17T13:22:26.853Z,-0.98
2022-12-17T13:24:56.833Z,-0.93
2022-12-17T13:27:35.530Z,-0.90
2022-12-17T13:30:20.723Z,-0.88
2022-12-17T13:33:08.328Z,-0.96
2022-12-17T13:35:49.363Z,-0.95
2022-12-17T13:38:22.948Z,-0.89
2022-12-17T13:41:10.488Z,-1.05
2022-12-17T13:43:45.215Z,-1.09
2022-12-17T13:46:26.882Z,-0.98
2022-12-17T13:49:06.657Z,-0.94
2022-12-17T13:51:35.234Z,-0.86
2022-12-17T13:54:04.203Z,-0.69
2022-12-17T13:56:36.181Z,-0.62
2022-12-17T13:59:09.316Z,-0.45
2022-12-17T14:01:45.352Z,-0.29
2022-12-17T14:04:21.535Z,-0.16
2022-12-17T14:06:48.468Z,0.09
2022-12-17T14:09:20.161Z,0.32
2022-12-17T14:12:06.718Z,0.58
2022-12-17T14:14:36.468Z,0.71
2022-12-17T14:17:03.655Z,0.57
2022-12-17T14:19:32.040Z,0.28
2022-12-17T14:21:59.282Z,0.03
2022-12-17T14:24:29.118Z,-0.22
2022-12-17T14:27:00.675Z,-0.38
2022-12-17T14:29:29.542Z,-0.54
2022-12-17T14:32:01.299Z,-0.66
2022-12-17T14:34:28.036Z,-0.76
2022-12-17T14:37:00.127Z,-0.87
2022-12-17T14:39:32.035Z,-0.88
2022-12-17T14:42:25.566Z,-0.98
2022-12-17T14:45:06.282Z,-1.11
2022-12-17T14:47:34.700Z,-1.10
2022-12-17T14:50:30.361Z,-1.08
2022-12-17T14:52:58.725Z,-1.08
2022-12-17T14:55:55.287Z,-1.21
2022-12-17T14:58:24.626Z,-1.18
2022-12-17T15:01:06.798Z,-1.25
2022-12-17T15:03:39.027Z,-1.31
2022-12-17T15:06:08.400Z,-1.25
2022-12-17T15:08:43.171Z,-1.31
2022-12-17T15:11:15.224Z,-1.36
2022-12-17T15:13:42.393Z,-1.41
2022-12-17T15:16:09.111Z,-1.41
2022-12-17T15:18:35.825Z,-1.45
2022-12-17T15:21:03.298Z,-1.47
2022-12-17T15:23:31.029Z,-1.56
2022-12-17T15:25:57.456Z,-1.58
2022-12-17T15:28:26.894Z,-1.61
2022-12-17T15:30:53.414Z,-1.63
2022-12-17T15:33:19.922Z,-1.67
2022-12-17T15:35:46.391Z,-1.64
2022-12-17T15:38:12.843Z,-1.61
2022-12-17T15:40:39.592Z,-1.62
2022-12-17T15:43:12.276Z,-1.62
2022-12-17T15:45:43.866Z,-1.63
2022-12-17T15:48:12.025Z,-1.69
2022-12-17T15:50:38.836Z,-1.69
2022-12-17T15:53:06.044Z,-1.72
2022-12-17T15:55:32.534Z,-1.80
2022-12-17T15:57:58.967Z,-1.75
2022-12-17T16:00:25.408Z,-1.73
2022-12-17T16:02:52.125Z,-2.05
2022-12-17T16:05:19.534Z,-2.67
2022-12-17T16:07:45.891Z,-3.55
2022-12-17T16:10:13.282Z,-4.05
2022-12-17T16:12:39.898Z,-4.29
2022-12-17T16:15:08.028Z,-4.34
2022-12-17T16:17:34.775Z,-3.95
2022-12-17T16:20:01.247Z,-3.68
2022-12-17T16:22:28.268Z,-3.58
2022-12-17T16:24:55.087Z,-3.61
2022-12-17T16:27:21.690Z,-3.67
2022-12-17T16:29:48.193Z,-3.80
2022-12-17T16:32:15.651Z,-3.98
2022-12-17T16:34:42.361Z,-4.20
2022-12-17T16:37:09.172Z,-4.38
2022-12-17T16:39:35.683Z,-4.50
2022-12-17T16:42:02.181Z,-4.57
2022-12-17T16:44:28.620Z,-4.66
2022-12-17T16:46:55.277Z,-4.71
2022-12-17T16:49:23.737Z,-4.79
2022-12-17T16:51:55.299Z,-4.63
2022-12-17T16:54:26.283Z,-4.31
2022-12-17T16:56:53.224Z,-4.07
2022-12-17T16:59:20.210Z,-3.88
2022-12-17T17:01:48.751Z,-3.73
2022-12-17T17:04:16.668Z,-3.59
2022-12-17T17:06:46.674Z,-3.44
2022-12-17T17:09:14.054Z,-3.38
2022-12-17T17:11:41.065Z,-3.33
2022-12-17T17:14:08.138Z,-3.30
2022-12-17T17:16:35.560Z,-3.29
2022-12-17T17:19:04.996Z,-3.21
2022-12-17T17:21:36.486Z,-3.18
2022-12-17T17:24:20.951Z,-3.21
2022-12-17T17:26:48.371Z,-3.25
2022-12-17T17:29:14.775Z,-3.20
2022-12-17T17:34:27.704Z,-3.08
2022-12-17T17:36:54.065Z,-3.11
2022-12-17T17:39:20.427Z,-3.18
2022-12-17T17:41:46.916Z,-3.20
2022-12-17T17:44:14.149Z,-3.23
2022-12-17T17:46:41.362Z,-3.25
2022-12-17T17:49:08.362Z,-3.30
2022-12-17T17:52:08.431Z,-3.37
2022-12-17T17:54:24.163Z,-3.49
2022-12-17T17:56:50.746Z,-3.52
2022-12-17T17:59:19.282Z,-3.53
2022-12-17T18:01:49.661Z,-3.50
2022-12-17T18:04:19.995Z,-3.53
2022-12-17T18:07:15.969Z,-3.57
2022-12-17T18:09:33.913Z,-3.60
2022-12-17T18:12:20.357Z,-3.61
2022-12-17T18:15:11.877Z,-3.64
2022-12-17T18:17:33.217Z,-3.58
2022-12-17T18:19:59.692Z,-3.67
2022-12-17T18:22:26.118Z,-3.68
2022-12-17T18:24:52.527Z,-3.71
2022-12-17T18:27:18.943Z,-3.75
2022-12-17T18:29:45.345Z,-3.68
2022-12-17T18:32:11.742Z,-3.60
2022-12-17T18:34:38.181Z,-3.59
2022-12-17T18:37:05.192Z,-3.59
2022-12-17T18:39:31.572Z,-3.60
2022-12-17T18:42:16.591Z,-3.69
2022-12-17T18:44:42.988Z,-3.75
2022-12-17T18:47:10.482Z,-3.78
2022-12-17T18:49:37.576Z,-3.82
2022-12-17T18:52:03.991Z,-3.92
2022-12-17T18:54:31.148Z,-3.96
2022-12-17T18:57:02.126Z,-4.01
2022-12-17T18:59:30.304Z,-4.05
2022-12-17T19:01:57.638Z,-3.99
2022-12-17T19:04:25.656Z,-3.98
2022-12-17T19:06:53.734Z,-4.00
2022-12-17T19:09:26.369Z,-3.94
2022-12-17T19:11:53.527Z,-3.92
2022-12-17T19:14:22.402Z,-3.92
2022-12-17T19:16:50.962Z,-3.93
2022-12-17T19:19:18.280Z,-3.92
2022-12-17T19:21:44.710Z,-3.95
2022-12-17T19:24:17.631Z,-3.85
2022-12-17T19:26:44.576Z,-3.72
2022-12-17T19:29:16.571Z,-3.63
2022-12-17T19:31:43.734Z,-3.56
2022-12-17T19:34:12.775Z,-3.57
2022-12-17T19:36:40.745Z,-3.60
2022-12-17T19:39:10.930Z,-3.57
2022-12-17T19:41:37.352Z,-3.60
2022-12-17T19:44:05.967Z,-3.61
2022-12-17T19:46:34.401Z,-3.63
2022-12-17T19:49:03.026Z,-3.55
2022-12-17T19:51:31.404Z,-3.49
2022-12-17T19:54:00.715Z,-3.46
2022-12-17T19:56:31.910Z,-3.43
2022-12-17T19:59:06.750Z,-3.40
2022-12-17T20:01:40.325Z,-3.45
2022-12-17T20:04:06.867Z,-3.41
2022-12-17T20:06:35.064Z,-3.36
2022-12-17T20:09:04.480Z,-3.39
2022-12-17T20:11:34.015Z,-3.46
2022-12-17T20:14:17.657Z,-3.50
2022-12-17T20:16:48.673Z,-3.49
2022-12-17T20:19:18.188Z,-3.47
2022-12-17T20:21:44.872Z,-3.55
2022-12-17T20:24:12.069Z,-3.52
2022-12-17T20:26:39.544Z,-3.58
2022-12-17T20:29:06.887Z,-3.66
2022-12-17T20:31:34.204Z,-3.65
2022-12-17T20:34:01.915Z,-3.60
2022-12-17T20:36:28.345Z,-3.66
2022-12-17T20:38:54.973Z,-3.78
2022-12-17T20:41:26.704Z,-3.91
2022-12-17T20:43:53.509Z,-3.99
2022-12-17T20:46:22.038Z,-4.04
2022-12-17T20:48:48.870Z,-3.99
2022-12-17T20:51:21.500Z,-4.15
2022-12-17T20:53:53.669Z,-4.20
2022-12-17T20:56:26.196Z,-4.25
2022-12-17T20:58:54.778Z,-4.25
2022-12-17T21:01:23.677Z,-4.27
2022-12-17T21:03:51.863Z,-4.29
2022-12-17T21:06:24.282Z,-4.34
2022-12-17T21:08:52.927Z,-4.35
2022-12-17T21:11:22.453Z,-4.33
2022-12-17T21:13:49.054Z,-4.36
2022-12-17T21:16:18.314Z,-4.35
2022-12-17T21:18:45.267Z,-4.45
2022-12-17T21:21:18.481Z,-4.50
2022-12-17T21:23:46.611Z,-4.61
2022-12-17T21:26:20.484Z,-4.64
2022-12-17T21:28:48.572Z,-4.57
2022-12-17T21:31:21.020Z,-4.61
2022-12-17T21:33:48.697Z,-4.61
2022-12-17T21:36:16.834Z,-4.66
2022-12-17T21:38:43.536Z,-4.69
2022-12-17T21:41:12.783Z,-4.73
2022-12-17T21:43:40.329Z,-4.72
2022-12-17T21:46:08.633Z,-4.65
2022-12-17T21:48:41.681Z,-4.61
2022-12-17T21:51:10.616Z,-4.50
2022-12-17T21:53:42.065Z,-4.45
2022-12-17T21:56:11.025Z,-4.35
2022-12-17T21:58:38.088Z,-4.25
2022-12-17T22:01:29.092Z,-4.20
2022-12-17T22:03:57.930Z,-4.16
2022-12-17T22:06:30.221Z,-4.21
2022-12-17T22:09:01.050Z,-4.12
2022-12-17T22:11:33.627Z,-4.02
2022-12-17T22:14:07.371Z,-3.97
2022-12-17T22:16:47.307Z,-3.91
2022-12-17T22:19:21.254Z,-3.80
2022-12-17T22:21:49.985Z,-3.76
2022-12-17T22:24:19.618Z,-3.72
2022-12-17T22:26:46.782Z,-3.72
2022-12-17T22:29:33.834Z,-3.69
2022-12-17T22:32:18.941Z,-3.63
2022-12-17T22:35:17.130Z,-3.58
2022-12-17T22:39:45.781Z,-3.56
2022-12-17T22:43:33.085Z,-3.48
2022-12-17T22:44:52.131Z,-3.42
2022-12-17T22:46:15.695Z,-3.40
2022-12-17T22:48:42.100Z,-3.41
2022-12-17T22:51:10.547Z,-3.48
2022-12-17T22:53:39.618Z,-3.47
2022-12-17T22:56:18.574Z,-3.44
2022-12-17T22:58:53.619Z,-3.48
2022-12-17T23:01:23.142Z,-3.41
2022-12-17T23:03:50.158Z,-3.47
2022-12-17T23:06:18.306Z,-3.46
2022-12-17T23:08:45.201Z,-3.45
2022-12-17T23:11:15.466Z,-3.42
2022-12-17T23:13:42.467Z,-3.36
2022-12-17T23:16:11.334Z,-3.39
2022-12-17T23:18:37.710Z,-3.37
2022-12-17T23:21:30.386Z,-3.37
2022-12-17T23:23:57.787Z,-3.35
2022-12-17T23:26:27.382Z,-3.33
2022-12-17T23:29:07.022Z,-3.35
2022-12-17T23:31:36.546Z,-3.31
2022-12-17T23:34:03.604Z,-3.34
2022-12-17T23:36:30.493Z,-3.34
2022-12-17T23:38:57.357Z,-3.32
2022-12-17T23:41:26.936Z,-3.34
2022-12-17T23:43:53.963Z,-3.36
2022-12-17T23:46:21.426Z,-3.40
2022-12-17T23:48:48.127Z,-3.40
2022-12-17T23:51:17.126Z,-3.42
2022-12-17T23:53:44.147Z,-3.45
2022-12-17T23:56:14.368Z,-3.39
2022-12-17T23:58:42.454Z,-3.36
